Time;durP1;ratioP1;P1;durP2;ratioP2;P2;SDS_P1;SDS_P2;PMS_P1;PMS_P2;Temp;Humidity;BMP_temperature;BMP_pressure;BME280_temperature;BME280_humidity;BME280_pressure;Samples;Min_cycle;Max_cycle;Signal;HPM_P1;HPM_P2
2022/06/19 00:01:04;;;;;;;2.97;1.40;;;13.10;99.90;;;;;;5029918;28;20066;-65
2022/06/19 00:03:54;;;;;;;5.13;1.45;;;13.40;99.90;;;;;;5036102;28;20120;-65
2022/06/19 00:06:22;;;;;;;5.00;1.52;;;13.60;99.90;;;;;;5028400;28;20418;-67
2022/06/19 00:08:51;;;;;;;2.95;1.25;;;13.60;99.90;;;;;;5021624;28;20116;-66
2022/06/19 00:11:20;;;;;;;5.85;2.10;;;13.80;99.90;;;;;;5027981;28;20029;-66
2022/06/19 00:13:47;;;;;;;6.43;1.60;;;13.90;99.90;;;;;;5029511;28;20021;-65
2022/06/19 00:16:16;;;;;;;4.75;2.13;;;14.00;99.90;;;;;;5027676;28;20100;-66
2022/06/19 00:18:43;;;;;;;5.50;1.20;;;14.30;99.90;;;;;;5028838;28;20028;-65
2022/06/19 00:21:15;;;;;;;5.68;1.40;;;14.50;99.90;;;;;;5030025;28;20040;-66
2022/06/19 00:23:43;;;;;;;5.43;1.33;;;14.60;99.90;;;;;;5021284;28;20045;-65
2022/06/19 00:26:11;;;;;;;4.15;1.42;;;14.70;99.90;;;;;;5030187;28;20370;-65
2022/06/19 00:28:40;;;;;;;6.93;1.30;;;14.70;99.90;;;;;;5038973;28;20044;-65
2022/06/19 00:31:08;;;;;;;3.03;1.10;;;14.70;99.90;;;;;;5030275;28;20038;-66
2022/06/19 00:33:36;;;;;;;4.25;1.13;;;14.70;99.90;;;;;;5033860;28;20049;-65
2022/06/19 00:36:05;;;;;;;8.27;1.58;;;14.60;99.90;;;;;;5028869;28;20030;-65
2022/06/19 00:38:32;;;;;;;4.68;1.20;;;14.70;99.90;;;;;;5025003;28;20080;-65
2022/06/19 00:41:01;;;;;;;4.78;1.60;;;14.90;99.90;;;;;;5021883;28;20030;-66
2022/06/19 00:43:29;;;;;;;4.93;1.60;;;15.10;99.90;;;;;;5021662;28;20029;-66
2022/06/19 00:46:23;;;;;;;30.17;7.07;;;15.30;99.90;;;;;;5027375;28;20040;-67
2022/06/19 00:48:50;;;;;;;9.23;2.70;;;15.10;99.90;;;;;;5023464;28;20048;-67
2022/06/19 00:51:19;;;;;;;5.20;1.65;;;15.00;99.90;;;;;;5025039;28;20026;-66
2022/06/19 00:53:48;;;;;;;5.32;1.50;;;15.10;99.90;;;;;;5030493;28;20037;-66
2022/06/19 00:56:20;;;;;;;8.43;1.70;;;15.30;99.90;;;;;;5016138;28;20036;-67
2022/06/19 00:58:51;;;;;;;6.43;1.70;;;15.40;99.90;;;;;;5033317;28;20029;-67
2022/06/19 01:01:22;;;;;;;4.55;1.38;;;15.40;99.90;;;;;;5023643;28;20029;-67
2022/06/19 01:04:04;;;;;;;4.78;1.20;;;15.50;99.90;;;;;;5026551;28;20544;-67
2022/06/19 01:06:33;;;;;;;3.35;1.15;;;15.50;99.90;;;;;;5017460;28;20030;-67
2022/06/19 01:09:00;;;;;;;3.65;1.58;;;15.40;99.90;;;;;;5022891;28;20405;-67
2022/06/19 01:11:32;;;;;;;4.43;1.40;;;15.30;99.90;;;;;;5022363;28;20042;-66
2022/06/19 01:14:01;;;;;;;3.67;1.30;;;15.20;99.90;;;;;;5042047;28;20026;-66
2022/06/19 01:16:29;;;;;;;6.55;1.58;;;15.30;99.90;;;;;;5027134;28;20051;-67
2022/06/19 01:18:59;;;;;;;10.32;1.95;;;15.40;99.90;;;;;;5033288;28;20435;-66
2022/06/19 01:21:40;;;;;;;4.97;1.38;;;15.50;99.90;;;;;;5027820;28;20087;-66
2022/06/19 01:24:30;;;;;;;5.47;1.20;;;15.60;99.90;;;;;;5033117;28;20030;-66
2022/06/19 01:27:01;;;;;;;3.15;1.15;;;15.70;99.90;;;;;;5015219;28;20040;-67
2022/06/19 01:29:34;;;;;;;8.63;1.63;;;15.80;99.90;;;;;;5029771;28;20021;-65
2022/06/19 01:32:05;;;;;;;5.30;1.10;;;15.90;99.90;;;;;;5017634;28;20042;-67
2022/06/19 01:34:39;;;;;;;4.60;1.55;;;16.10;99.90;;;;;;5012340;28;20101;-67
2022/06/19 01:37:17;;;;;;;6.50;1.13;;;16.10;99.90;;;;;;5029085;28;20026;-66
2022/06/19 01:39:50;;;;;;;5.75;1.30;;;16.20;99.90;;;;;;5036156;28;20040;-66
2022/06/19 01:42:18;;;;;;;6.70;1.60;;;16.10;99.90;;;;;;5018340;28;20397;-66
2022/06/19 01:44:47;;;;;;;4.80;0.77;;;16.10;99.90;;;;;;5016931;28;20026;-67
2022/06/19 01:47:15;;;;;;;4.53;1.00;;;16.20;99.90;;;;;;5020516;28;20018;-66
2022/06/19 01:49:48;;;;;;;6.97;1.60;;;16.30;99.90;;;;;;5016535;28;20478;-67
2022/06/19 01:52:18;;;;;;;4.53;0.80;;;16.60;99.90;;;;;;5017240;28;20034;-67
2022/06/19 01:54:54;;;;;;;8.32;1.00;;;16.90;99.90;;;;;;5019589;28;20037;-67
2022/06/19 01:57:22;;;;;;;4.72;0.82;;;16.90;99.90;;;;;;5032502;28;20026;-67
2022/06/19 01:59:52;;;;;;;4.53;0.80;;;17.00;99.90;;;;;;5033691;28;20032;-66
2022/06/19 02:02:20;;;;;;;7.35;1.60;;;17.10;99.90;;;;;;5017750;28;20052;-67
2022/06/19 02:04:47;;;;;;;8.68;1.17;;;17.10;99.90;;;;;;5014937;28;20034;-67
2022/06/19 02:07:21;;;;;;;7.10;1.40;;;17.30;99.90;;;;;;5019210;28;20038;-66
2022/06/19 02:09:51;;;;;;;8.60;0.90;;;17.40;99.90;;;;;;5015972;28;20029;-66
2022/06/19 02:12:20;;;;;;;6.72;0.60;;;17.50;99.90;;;;;;5015741;28;20065;-66
2022/06/19 02:14:47;;;;;;;7.43;1.42;;;17.60;99.90;;;;;;5030852;28;20040;-67
2022/06/19 02:17:25;;;;;;;4.97;1.40;;;17.80;99.90;;;;;;5033891;28;20029;-66
2022/06/19 02:19:53;;;;;;;5.88;1.20;;;17.90;99.90;;;;;;5035446;28;20370;-67
2022/06/19 02:22:21;;;;;;;3.67;0.98;;;18.10;99.90;;;;;;5016883;28;20080;-66
2022/06/19 02:24:48;;;;;;;5.93;1.45;;;18.50;99.90;;;;;;5019070;28;20075;-66
2022/06/19 02:27:15;;;;;;;6.03;1.15;;;18.90;99.90;;;;;;5030136;28;20060;-67
2022/06/19 02:29:43;;;;;;;6.03;1.55;;;19.20;99.90;;;;;;5035777;28;20029;-67
2022/06/19 02:32:23;;;;;;;3.53;1.38;;;19.10;99.90;;;;;;5017432;28;20034;-67
2022/06/19 02:34:52;;;;;;;7.78;1.35;;;18.70;99.90;;;;;;5015499;28;20026;-67
2022/06/19 02:37:25;;;;;;;5.13;1.00;;;18.20;99.90;;;;;;5015410;28;20063;-66
2022/06/19 02:40:09;;;;;;;9.20;1.95;;;18.20;99.90;;;;;;5015767;28;20022;-67
2022/06/19 02:42:45;;;;;;;6.57;1.00;;;17.90;99.90;;;;;;5018980;28;20049;-67
2022/06/19 02:45:21;;;;;;;6.38;0.70;;;18.50;99.90;;;;;;5016465;28;20026;-67
2022/06/19 02:47:49;;;;;;;3.65;0.95;;;19.00;99.90;;;;;;5028686;28;20049;-66
2022/06/19 02:50:30;;;;;;;7.80;0.98;;;18.70;99.90;;;;;;5021952;28;20549;-67
2022/06/19 02:52:57;;;;;;;4.82;1.00;;;18.70;99.90;;;;;;5027727;28;20038;-66
2022/06/19 02:55:25;;;;;;;6.47;1.17;;;18.80;99.90;;;;;;5018163;28;20141;-66
2022/06/19 02:57:53;;;;;;;3.80;0.88;;;18.40;99.90;;;;;;5021923;28;20022;-66
2022/06/19 03:00:27;;;;;;;5.07;1.13;;;17.90;99.90;;;;;;5015902;28;20125;-67
2022/06/19 03:02:59;;;;;;;5.05;0.98;;;17.40;99.90;;;;;;5028556;28;20021;-67
2022/06/19 03:05:28;;;;;;;5.38;1.33;;;17.20;99.90;;;;;;5015915;28;20501;-66
2022/06/19 03:07:56;;;;;;;5.28;1.15;;;17.20;99.90;;;;;;5015016;28;20022;-67
2022/06/19 03:10:24;;;;;;;7.80;0.90;;;17.80;99.90;;;;;;5016107;28;20390;-66
2022/06/19 03:12:51;;;;;;;4.35;0.80;;;17.80;99.90;;;;;;5015244;28;20030;-67
2022/06/19 03:15:19;;;;;;;6.10;0.70;;;17.60;99.90;;;;;;5015493;28;20033;-66
2022/06/19 03:17:46;;;;;;;3.53;0.65;;;17.40;99.90;;;;;;5014791;28;20017;-66
2022/06/19 03:20:19;;;;;;;4.28;1.10;;;17.20;99.90;;;;;;5017141;28;20030;-66
2022/06/19 03:22:47;;;;;;;6.55;0.95;;;17.10;99.90;;;;;;5014937;28;20390;-66
2022/06/19 03:25:15;;;;;;;4.90;0.90;;;16.80;99.90;;;;;;5030917;28;20475;-66
2022/06/19 03:27:42;;;;;;;5.30;1.20;;;16.80;99.90;;;;;;5020524;28;20470;-66
2022/06/19 03:30:11;;;;;;;6.75;0.80;;;17.20;99.90;;;;;;5033756;28;20029;-66
2022/06/19 03:32:39;;;;;;;3.20;0.50;;;17.50;99.90;;;;;;5034206;28;20482;-66
2022/06/19 03:35:08;;;;;;;9.43;0.68;;;17.40;99.90;;;;;;5029165;28;20383;-66
2022/06/19 03:37:35;;;;;;;7.07;1.20;;;17.80;99.90;;;;;;5034376;28;20033;-66
2022/06/19 03:40:04;;;;;;;6.65;1.27;;;17.80;99.90;;;;;;5033231;28;20382;-65
2022/06/19 03:42:31;;;;;;;6.60;1.52;;;17.60;99.90;;;;;;5029760;28;20045;-66
2022/06/19 03:44:58;;;;;;;4.82;1.17;;;17.60;99.90;;;;;;5014165;28;20029;-66
2022/06/19 03:47:27;;;;;;;6.28;0.93;;;17.50;99.90;;;;;;5014460;28;20076;-66
2022/06/19 03:49:55;;;;;;;5.60;1.30;;;17.40;99.90;;;;;;5013350;28;20554;-66
2022/06/19 03:52:22;;;;;;;11.85;1.58;;;17.30;99.90;;;;;;5018309;28;20034;-66
2022/06/19 03:54:49;;;;;;;4.45;0.98;;;17.20;99.90;;;;;;5013741;28;20042;-66
2022/06/19 03:57:17;;;;;;;5.57;1.00;;;17.60;99.90;;;;;;5031767;28;20397;-66
2022/06/19 03:59:44;;;;;;;9.27;1.48;;;17.80;99.90;;;;;;5033429;28;20033;-67
2022/06/19 04:02:12;;;;;;;7.05;1.10;;;17.50;99.90;;;;;;5015694;28;20022;-66
2022/06/19 04:04:40;;;;;;;15.55;1.15;;;17.20;99.90;;;;;;5014272;28;20583;-67
2022/06/19 04:07:11;;;;;;;7.28;1.48;;;17.10;99.90;;;;;;5013534;28;20502;-66
2022/06/19 04:09:38;;;;;;;5.00;1.27;;;17.00;99.90;;;;;;5013872;28;20018;-66
2022/06/19 04:12:06;;;;;;;5.65;0.90;;;17.00;99.90;;;;;;5024639;28;20037;-66
2022/06/19 04:14:33;;;;;;;5.78;1.25;;;16.90;99.90;;;;;;5020543;28;20049;-66
2022/06/19 04:17:01;;;;;;;8.20;1.52;;;16.90;99.90;;;;;;5028319;28;20037;-66
2022/06/19 04:19:29;;;;;;;6.68;1.73;;;16.80;99.90;;;;;;5023148;28;20395;-66
2022/06/19 04:21:56;;;;;;;8.98;1.63;;;16.80;99.90;;;;;;5017279;28;20673;-66
2022/06/19 04:24:23;;;;;;;6.70;1.50;;;16.90;99.90;;;;;;5017059;28;20109;-67
2022/06/19 04:26:51;;;;;;;4.38;0.80;;;16.90;99.90;;;;;;5037687;28;20021;-66
2022/06/19 04:29:19;;;;;;;5.03;1.25;;;16.80;99.90;;;;;;5019110;28;20030;-66
2022/06/19 04:31:46;;;;;;;5.65;1.90;;;16.80;99.90;;;;;;5014547;28;20029;-65
2022/06/19 04:34:13;;;;;;;5.65;0.90;;;16.80;99.90;;;;;;5029383;28;20025;-66
2022/06/19 04:36:41;;;;;;;7.82;2.10;;;16.80;99.90;;;;;;5020795;28;20029;-66
2022/06/19 04:39:08;;;;;;;8.55;1.13;;;16.80;99.90;;;;;;5019714;28;20026;-66
2022/06/19 04:41:39;;;;;;;3.45;0.98;;;16.70;99.90;;;;;;5017417;28;20025;-66
2022/06/19 04:44:10;;;;;;;4.15;1.38;;;16.70;99.90;;;;;;5023157;28;20026;-66
2022/06/19 04:46:37;;;;;;;5.82;1.30;;;16.70;99.90;;;;;;5019561;28;20033;-66
2022/06/19 04:49:05;;;;;;;3.90;0.75;;;16.70;99.90;;;;;;5022725;28;20112;-66
2022/06/19 04:51:32;;;;;;;8.93;1.58;;;16.50;99.90;;;;;;5029638;28;20033;-66
2022/06/19 04:54:00;;;;;;;6.97;1.40;;;16.40;99.90;;;;;;5019447;28;20099;-67
2022/06/19 04:56:27;;;;;;;6.10;1.50;;;16.30;99.90;;;;;;5019185;28;20025;-66
2022/06/19 04:58:54;;;;;;;7.88;1.63;;;16.20;99.90;;;;;;5035027;28;20803;-66
2022/06/19 05:01:26;;;;;;;4.35;1.40;;;16.20;99.90;;;;;;5023049;28;20059;-66
2022/06/19 05:03:57;;;;;;;6.60;0.85;;;16.30;99.90;;;;;;5022952;28;20120;-66
2022/06/19 05:06:25;;;;;;;8.55;1.60;;;16.40;99.90;;;;;;5017366;28;20056;-67
2022/06/19 05:08:53;;;;;;;5.80;1.00;;;16.40;99.90;;;;;;5014461;28;20538;-66
2022/06/19 05:11:21;;;;;;;8.75;1.13;;;16.50;99.90;;;;;;5016442;28;20047;-66
2022/06/19 05:13:49;;;;;;;8.30;1.00;;;16.50;99.90;;;;;;5019690;28;20109;-66
2022/06/19 05:16:20;;;;;;;6.20;1.13;;;16.50;99.90;;;;;;5027890;28;20512;-66
2022/06/19 05:18:49;;;;;;;10.60;4.45;;;16.50;99.90;;;;;;5031429;28;20029;-67
2022/06/19 05:21:17;;;;;;;7.68;1.17;;;16.50;99.90;;;;;;5031943;28;20382;-66
2022/06/19 05:23:46;;;;;;;6.78;1.73;;;16.50;99.90;;;;;;5026898;28;20018;-66
2022/06/19 05:26:26;;;;;;;4.68;1.17;;;16.40;99.90;;;;;;5028311;28;20025;-66
2022/06/19 05:28:55;;;;;;;5.35;1.13;;;16.30;99.90;;;;;;5030792;28;20580;-67
2022/06/19 05:31:24;;;;;;;4.75;1.00;;;16.40;99.90;;;;;;5026561;28;20033;-66
2022/06/19 05:33:52;;;;;;;7.13;1.35;;;16.40;99.90;;;;;;5023902;28;20056;-67
2022/06/19 05:36:20;;;;;;;5.60;0.90;;;16.40;99.90;;;;;;5031863;28;20069;-66
2022/06/19 05:38:48;;;;;;;4.85;1.10;;;16.40;99.90;;;;;;5029796;28;20037;-66
2022/06/19 05:41:15;;;;;;;11.07;2.28;;;16.40;99.90;;;;;;5021892;28;20067;-66
2022/06/19 05:43:43;;;;;;;3.95;1.25;;;16.30;99.90;;;;;;5013677;28;20041;-66
2022/06/19 05:46:18;;;;;;;6.30;1.23;;;16.30;99.90;;;;;;5019518;28;20048;-67
2022/06/19 05:48:46;;;;;;;6.70;0.75;;;16.30;99.90;;;;;;5023083;28;20042;-66
2022/06/19 05:51:19;;;;;;;6.68;1.08;;;16.20;99.90;;;;;;5017320;28;20034;-67
2022/06/19 05:53:50;;;;;;;5.95;2.00;;;16.20;99.90;;;;;;5013018;28;20050;-68
2022/06/19 05:56:17;;;;;;;6.88;1.35;;;16.20;99.90;;;;;;5014927;28;20026;-66
2022/06/19 05:58:45;;;;;;;9.82;1.27;;;16.20;99.90;;;;;;5031463;28;20544;-67
2022/06/19 06:01:14;;;;;;;7.55;1.00;;;16.20;99.90;;;;;;5019792;28;20470;-66
2022/06/19 06:03:42;;;;;;;7.03;1.08;;;16.20;99.90;;;;;;5015350;28;20029;-68
2022/06/19 06:06:15;;;;;;;10.38;1.30;;;16.10;99.90;;;;;;5017047;28;20046;-67
2022/06/19 06:08:42;;;;;;;12.07;1.25;;;16.00;99.90;;;;;;5016508;28;20026;-67
2022/06/19 06:11:10;;;;;;;8.35;1.25;;;16.00;99.90;;;;;;5033651;28;20393;-66
2022/06/19 06:13:37;;;;;;;8.88;1.35;;;16.00;99.90;;;;;;5028914;28;20060;-67
2022/06/19 06:16:05;;;;;;;4.75;1.10;;;15.90;99.90;;;;;;5029528;28;20033;-67
2022/06/19 06:18:32;;;;;;;9.98;1.20;;;15.90;99.90;;;;;;5025879;28;20032;-66
2022/06/19 06:21:04;;;;;;;7.18;0.90;;;15.90;99.90;;;;;;5028739;28;20390;-66
2022/06/19 06:23:35;;;;;;;7.43;1.08;;;15.80;99.90;;;;;;5044271;28;20108;-66
2022/06/19 06:26:10;;;;;;;8.80;1.05;;;15.80;99.90;;;;;;5023807;28;20073;-66
2022/06/19 06:28:38;;;;;;;;;;;15.80;99.90;;;;;;5016560;28;20109;-65
2022/06/19 06:31:05;;;;;;;7.25;1.20;;;15.70;99.90;;;;;;5025756;28;20361;-66
2022/06/19 06:33:33;;;;;;;11.48;1.38;;;15.70;99.90;;;;;;5025052;28;20471;-66
2022/06/19 06:36:01;;;;;;;8.45;1.50;;;15.70;99.90;;;;;;5017897;28;20034;-66
2022/06/19 06:38:29;;;;;;;13.82;1.63;;;15.60;99.90;;;;;;5016693;28;20025;-66
2022/06/19 06:40:56;;;;;;;10.85;1.55;;;15.60;99.90;;;;;;5024521;28;20363;-67
2022/06/19 06:43:24;;;;;;;7.95;1.33;;;15.60;99.90;;;;;;5016254;28;20482;-67
2022/06/19 06:45:51;;;;;;;9.05;1.70;;;15.60;99.90;;;;;;5028084;28;20036;-66
2022/06/19 06:48:19;;;;;;;8.52;1.13;;;15.50;99.90;;;;;;5024827;28;20127;-66
2022/06/19 06:50:47;;;;;;;8.32;1.42;;;15.60;99.90;;;;;;5024089;28;20026;-66
2022/06/19 06:53:17;;;;;;;6.13;0.80;;;15.60;99.90;;;;;;5018688;28;20026;-66
2022/06/19 06:55:45;;;;;;;5.10;2.20;;;15.60;99.90;;;;;;5023213;28;20021;-66
2022/06/19 06:58:12;;;;;;;5.88;0.95;;;15.50;99.90;;;;;;5029444;28;20018;-67
2022/06/19 07:00:42;;;;;;;8.95;2.55;;;15.40;99.90;;;;;;5041249;28;20540;-68
2022/06/19 07:03:10;;;;;;;5.15;1.35;;;15.20;99.90;;;;;;5032816;28;20038;-68
2022/06/19 07:05:38;;;;;;;3.85;0.88;;;15.20;99.90;;;;;;5032126;28;20032;-67
2022/06/19 07:08:05;;;;;;;4.55;1.10;;;15.10;99.90;;;;;;5026083;28;20029;-67
2022/06/19 07:10:33;;;;;;;2.90;0.50;;;15.10;99.90;;;;;;5035541;28;20033;-68
2022/06/19 07:13:00;;;;;;;5.57;0.95;;;15.00;99.90;;;;;;5027916;28;20056;-67
2022/06/19 07:15:28;;;;;;;4.28;0.60;;;14.90;99.90;;;;;;5028328;28;20025;-67
2022/06/19 07:17:55;;;;;;;3.58;0.57;;;14.80;99.90;;;;;;5036447;28;20037;-68
2022/06/19 07:20:22;;;;;;;4.53;1.77;;;14.70;99.90;;;;;;5027727;28;20022;-68
2022/06/19 07:22:50;;;;;;;5.63;2.78;;;14.50;99.90;;;;;;5026826;28;20122;-69
2022/06/19 07:25:19;;;;;;;4.78;2.28;;;14.40;99.90;;;;;;5021945;28;20064;-67
2022/06/19 07:27:47;;;;;;;4.88;1.05;;;14.30;99.90;;;;;;5023947;28;20037;-69
2022/06/19 07:30:17;;;;;;;5.97;1.55;;;14.20;99.90;;;;;;5025641;28;20029;-69
2022/06/19 07:32:44;;;;;;;11.80;6.32;;;14.20;99.90;;;;;;5024289;28;20039;-69
2022/06/19 07:35:12;;;;;;;13.65;7.20;;;14.10;99.90;;;;;;5031779;28;20070;-69
2022/06/19 07:37:39;;;;;;;13.82;5.15;;;14.00;99.90;;;;;;5025712;28;20041;-69
2022/06/19 07:40:07;;;;;;;7.88;3.33;;;13.90;99.90;;;;;;5032441;28;20105;-68
2022/06/19 07:42:34;;;;;;;4.25;2.85;;;13.90;99.90;;;;;;5016150;28;20025;-69
2022/06/19 07:45:02;;;;;;;12.75;6.07;;;14.00;99.90;;;;;;5030069;28;20102;-69
2022/06/19 07:50:16;;;;;;;12.07;8.60;;;13.90;99.90;;;;;;5028361;28;20271;-69
2022/06/19 07:52:47;;;;;;;8.35;3.97;;;13.80;99.90;;;;;;5021171;28;20029;-70
2022/06/19 07:55:18;;;;;;;6.50;2.20;;;13.70;99.90;;;;;;5026633;28;20052;-70
2022/06/19 07:57:45;;;;;;;10.93;3.90;;;13.70;99.90;;;;;;5035226;28;20469;-70
2022/06/19 08:00:17;;;;;;;13.52;5.72;;;13.80;99.90;;;;;;5034157;28;20559;-69
2022/06/19 08:02:50;;;;;;;13.40;6.20;;;13.70;99.90;;;;;;5021459;28;20022;-70
2022/06/19 08:05:24;;;;;;;10.13;3.90;;;13.70;99.90;;;;;;5027851;28;20449;-69
2022/06/19 08:07:52;;;;;;;11.60;4.60;;;13.70;99.90;;;;;;5021184;28;20364;-70
2022/06/19 08:10:32;;;;;;;7.28;3.65;;;13.70;99.90;;;;;;5023787;28;20120;-70
2022/06/19 08:13:00;;;;;;;9.45;3.53;;;13.60;99.90;;;;;;5030083;28;20436;-69
2022/06/19 08:15:29;;;;;;;8.27;3.92;;;13.60;99.90;;;;;;5027435;28;20482;-70
2022/06/19 08:17:56;;;;;;;8.65;3.58;;;13.60;99.90;;;;;;5025462;28;20406;-70
2022/06/19 08:20:24;;;;;;;8.63;3.95;;;13.70;99.90;;;;;;5018537;28;20028;-69
2022/06/19 08:22:52;;;;;;;6.60;2.00;;;13.60;99.90;;;;;;5017026;28;20061;-68
2022/06/19 08:25:21;;;;;;;4.38;1.33;;;13.60;99.90;;;;;;5025217;28;20034;-68
2022/06/19 08:27:50;;;;;;;7.55;1.98;;;13.60;99.90;;;;;;5038019;28;20025;-68
2022/06/19 08:30:31;;;;;;;5.85;2.00;;;13.50;99.90;;;;;;5032860;28;20028;-68
2022/06/19 08:32:58;;;;;;;3.63;1.38;;;13.60;99.90;;;;;;5017715;28;20040;-68
2022/06/19 08:35:27;;;;;;;2.90;1.65;;;13.50;99.90;;;;;;5030558;28;20026;-69
2022/06/19 08:38:00;;;;;;;6.53;2.20;;;13.40;99.90;;;;;;5037501;28;20058;-68
2022/06/19 08:40:34;;;;;;;4.32;1.55;;;13.50;99.90;;;;;;5025502;28;20391;-68
2022/06/19 08:43:01;;;;;;;;;;;13.50;99.90;;;;;;5029636;28;20390;-68
2022/06/19 08:45:52;;;;;;;9.13;2.13;;;13.60;99.90;;;;;;5014154;28;19916;-68
2022/06/19 08:48:36;;;;;;;7.55;2.35;;;13.60;99.90;;;;;;5019282;28;20036;-68
2022/06/19 08:51:13;;;;;;;9.90;2.65;;;13.50;99.90;;;;;;5029170;28;20096;-68
2022/06/19 08:54:12;;;;;;;4.80;2.08;;;13.60;99.90;;;;;;5027254;28;20045;-68
2022/06/19 08:57:02;;;;;;;6.97;2.25;;;13.60;99.90;;;;;;5025833;28;20098;-68
2022/06/19 09:00:11;;;;;;;8.35;2.63;;;13.50;99.90;;;;;;5022381;28;20616;-68
2022/06/19 09:02:54;;;;;;;9.95;2.83;;;13.30;99.90;;;;;;5034364;28;20080;-69
2022/06/19 09:05:46;;;;;;;5.25;2.10;;;13.40;99.90;;;;;;5034193;28;20025;-68
2022/06/19 09:08:25;;;;;;;5.85;3.10;;;13.30;99.90;;;;;;5030910;28;20119;-68
2022/06/19 09:11:39;;;;;;;9.63;4.18;;;13.30;99.90;;;;;;5029801;28;20053;-68
2022/06/19 09:14:54;;;;;;;7.85;3.08;;;13.30;99.90;;;;;;5014443;28;20030;-69
2022/06/19 09:17:55;;;;;;;8.98;4.03;;;13.20;99.90;;;;;;5041558;28;20060;-69
2022/06/19 09:20:46;;;;;;;9.63;4.00;;;13.10;99.90;;;;;;5020148;28;20104;-68
2022/06/19 09:23:28;;;;;;;8.38;3.10;;;13.20;99.90;;;;;;5032034;28;20034;-68
2022/06/19 09:26:00;;;;;;;9.00;2.70;;;13.10;99.90;;;;;;5029751;28;20132;-68
2022/06/19 09:28:31;;;;;;;5.53;2.45;;;13.20;99.90;;;;;;5040007;28;20040;-68
2022/06/19 09:31:21;;;;;;;6.47;2.40;;;13.20;99.90;;;;;;5024419;28;20111;-68
2022/06/19 09:34:16;;;;;;;10.23;4.03;;;13.20;99.90;;;;;;5026041;28;20112;-68
2022/06/19 09:37:02;;;;;;;11.02;5.40;;;13.20;99.90;;;;;;5024773;28;20034;-68
2022/06/19 09:39:32;;;;;;;8.85;5.38;;;13.30;99.90;;;;;;5028121;28;20076;-67
2022/06/19 09:42:00;;;;;;;11.13;5.35;;;13.30;99.90;;;;;;5021818;28;20104;-67
2022/06/19 09:44:43;;;;;;;8.00;4.18;;;13.30;99.90;;;;;;5023460;28;20525;-67
2022/06/19 09:47:23;;;;;;;5.82;3.47;;;13.30;99.90;;;;;;5012891;28;20117;-67
2022/06/19 09:50:10;;;;;;;12.88;3.83;;;13.30;99.90;;;;;;5018641;28;20675;-68
2022/06/19 09:52:44;;;;;;;8.57;4.00;;;13.30;99.90;;;;;;5023755;28;20032;-68
2022/06/19 09:55:17;;;;;;;9.25;3.05;;;13.30;99.90;;;;;;5032744;28;20053;-68
2022/06/19 09:58:18;;;;;;;8.30;3.00;;;13.20;99.90;;;;;;5018802;28;20053;-68
2022/06/19 10:00:49;;;;;;;6.55;2.67;;;13.10;99.90;;;;;;5021828;28;20042;-68
2022/06/19 10:03:22;;;;;;;18.02;3.10;;;13.20;99.90;;;;;;5019911;28;20022;-68
2022/06/19 10:06:03;;;;;;;5.80;3.03;;;13.20;99.90;;;;;;5033668;28;20060;-68
2022/06/19 10:08:57;;;;;;;6.53;3.00;;;13.20;99.90;;;;;;5031918;28;20026;-67
2022/06/19 10:11:31;;;;;;;7.10;2.58;;;13.20;99.90;;;;;;5030247;28;20032;-67
2022/06/19 10:14:14;;;;;;;5.75;2.92;;;13.20;99.90;;;;;;5032437;28;20061;-68
2022/06/19 10:16:55;;;;;;;7.10;2.92;;;13.10;99.90;;;;;;5016022;28;20025;-68
2022/06/19 10:19:32;;;;;;;5.05;2.67;;;13.10;99.90;;;;;;5025071;28;20025;-69
2022/06/19 10:22:31;;;;;;;5.60;3.00;;;13.10;99.90;;;;;;5045133;28;20478;-68
2022/06/19 10:25:34;;;;;;;9.75;3.85;;;13.10;99.90;;;;;;5034007;28;20032;-68
2022/06/19 10:28:34;;;;;;;11.30;5.35;;;13.10;99.90;;;;;;5020876;28;20029;-69
2022/06/19 10:31:16;;;;;;;8.75;5.80;;;13.10;99.90;;;;;;5028496;28;20036;-69
2022/06/19 10:33:49;;;;;;;11.13;6.03;;;13.10;99.90;;;;;;5025641;28;20044;-68
2022/06/19 10:36:57;;;;;;;7.05;4.38;;;13.10;99.90;;;;;;5024406;28;20524;-69
2022/06/19 10:39:49;;;;;;;9.95;5.22;;;13.10;99.90;;;;;;5033541;28;20049;-69
2022/06/19 10:42:27;;;;;;;8.88;5.00;;;13.10;99.90;;;;;;5035200;28;20025;-69
2022/06/19 10:45:21;;;;;;;9.77;4.68;;;13.20;99.90;;;;;;5019818;28;20069;-68
2022/06/19 10:48:17;;;;;;;13.65;7.38;;;13.20;99.90;;;;;;5032376;28;20065;-69
2022/06/19 10:51:03;;;;;;;12.20;5.85;;;13.20;99.90;;;;;;5024164;28;20110;-68
2022/06/19 10:54:04;;;;;;;11.10;6.63;;;13.10;99.90;;;;;;5017300;28;20053;-69
2022/06/19 10:56:55;;;;;;;14.15;6.43;;;13.10;99.90;;;;;;5030407;28;20477;-69
2022/06/19 10:59:23;;;;;;;13.73;5.95;;;13.00;99.90;;;;;;5033884;28;20029;-69
2022/06/19 11:05:01;;;;;;;10.48;5.28;;;13.00;99.90;;;;;;5020123;28;20040;-69
2022/06/19 11:07:31;;;;;;;9.30;5.57;;;13.00;99.90;;;;;;5040309;28;20031;-68
2022/06/19 11:10:11;;;;;;;9.48;5.22;;;12.90;99.90;;;;;;5034542;28;20474;-69
2022/06/19 11:12:48;;;;;;;11.38;5.18;;;12.90;99.90;;;;;;5025244;28;20049;-68
2022/06/19 11:15:40;;;;;;;12.68;6.60;;;13.00;99.90;;;;;;5015424;28;20034;-68
2022/06/19 11:18:25;;;;;;;11.45;6.63;;;13.00;99.90;;;;;;5015448;28;20026;-68
2022/06/19 11:21:14;;;;;;;13.10;6.95;;;13.10;99.90;;;;;;5017339;28;20037;-69
2022/06/19 11:23:51;;;;;;;8.07;5.55;;;13.00;99.90;;;;;;5040856;28;20029;-68
2022/06/19 11:26:27;;;;;;;8.68;5.18;;;13.00;99.90;;;;;;5053251;28;20017;-68
2022/06/19 11:29:03;;;;;;;9.02;5.65;;;13.10;99.90;;;;;;5038339;28;20025;-69
2022/06/19 11:31:37;;;;;;;15.27;6.28;;;13.10;99.90;;;;;;5023511;28;20022;-69
2022/06/19 11:37:13;;;;;;;8.93;5.55;;;13.10;99.90;;;;;;5028428;28;20040;-69
2022/06/19 11:39:44;;;;;;;8.40;5.40;;;13.00;99.90;;;;;;5028453;28;20018;-69
2022/06/19 11:42:26;;;;;;;12.77;5.57;;;13.10;99.90;;;;;;5032956;28;20037;-68
2022/06/19 11:44:56;;;;;;;10.70;5.82;;;13.00;99.90;;;;;;5025763;28;20084;-69
2022/06/19 11:47:39;;;;;;;11.68;5.40;;;13.00;99.90;;;;;;5038209;28;20022;-69
2022/06/19 11:50:17;;;;;;;9.07;4.93;;;13.00;99.90;;;;;;5031554;28;20060;-69
2022/06/19 11:53:04;;;;;;;8.23;4.85;;;13.00;99.90;;;;;;5019964;28;20112;-69
2022/06/19 11:55:35;;;;;;;10.13;6.28;;;13.00;99.90;;;;;;5019531;28;20065;-69
2022/06/19 11:58:13;;;;;;;8.20;4.57;;;13.00;99.90;;;;;;5026233;28;20041;-68
2022/06/19 12:00:43;;;;;;;11.82;6.30;;;13.10;99.90;;;;;;5027070;28;20053;-69
2022/06/19 12:03:33;;;;;;;8.27;5.72;;;13.10;99.90;;;;;;5027075;28;20056;-68
2022/06/19 12:06:07;;;;;;;14.27;7.18;;;13.00;99.90;;;;;;5027802;28;20034;-68
2022/06/19 12:08:52;;;;;;;9.38;6.53;;;13.00;99.90;;;;;;5026686;28;20025;-68
2022/06/19 12:11:56;;;;;;;13.07;7.03;;;12.90;99.90;;;;;;5022510;28;20033;-68
2022/06/19 12:14:55;;;;;;;15.13;6.47;;;12.80;99.90;;;;;;5028503;28;20029;-68
2022/06/19 12:17:34;;;;;;;12.93;5.80;;;12.80;99.90;;;;;;5020908;28;20040;-68
2022/06/19 12:20:09;;;;;;;11.50;5.95;;;12.80;99.90;;;;;;5018959;28;20080;-68
2022/06/19 12:22:37;;;;;;;10.95;5.97;;;12.70;99.90;;;;;;5026370;28;20064;-68
2022/06/19 12:25:33;;;;;;;12.00;6.78;;;12.70;99.90;;;;;;5024682;28;20037;-68
2022/06/19 12:28:11;;;;;;;10.77;5.82;;;12.70;99.90;;;;;;5038593;28;20083;-68
2022/06/19 12:30:56;;;;;;;15.38;6.78;;;12.70;99.90;;;;;;5023592;28;20487;-68
2022/06/19 12:33:29;;;;;;;11.43;6.57;;;12.70;99.90;;;;;;5041109;28;20401;-69
2022/06/19 12:35:58;;;;;;;13.73;7.00;;;12.60;99.90;;;;;;5020439;28;20026;-69
2022/06/19 12:38:26;;;;;;;10.60;6.38;;;12.50;99.90;;;;;;5024599;28;20026;-68
2022/06/19 12:41:01;;;;;;;8.20;5.38;;;12.60;99.90;;;;;;5023073;28;20030;-68
2022/06/19 12:43:31;;;;;;;11.65;6.22;;;12.70;99.90;;;;;;5018055;28;20017;-69
2022/06/19 12:45:59;;;;;;;9.07;6.25;;;12.80;99.90;;;;;;5039920;28;20050;-68
2022/06/19 12:48:44;;;;;;;8.75;6.40;;;12.80;99.90;;;;;;5027522;28;20025;-69
2022/06/19 12:51:13;;;;;;;;;;;12.80;99.90;;;;;;5025943;28;20026;-69
2022/06/19 12:54:10;;;;;;;10.93;6.43;;;12.90;99.90;;;;;;5033157;28;19956;-69
2022/06/19 12:56:53;;;;;;;15.75;6.95;;;12.90;99.90;;;;;;5027370;28;20124;-69
2022/06/19 12:59:26;;;;;;;12.45;6.45;;;13.00;99.90;;;;;;5037097;28;20026;-68
2022/06/19 13:02:39;;;;;;;14.05;5.88;;;13.00;99.90;;;;;;5033206;28;20101;-68
2022/06/19 13:05:26;;;;;;;10.82;5.90;;;13.00;99.90;;;;;;5035052;28;20081;-68
2022/06/19 13:08:05;;;;;;;10.77;6.13;;;13.00;99.90;;;;;;5022453;28;20026;-69
2022/06/19 13:11:15;;;;;;;10.25;5.07;;;13.10;99.90;;;;;;5026218;28;20125;-69
2022/06/19 13:13:55;;;;;;;12.52;6.55;;;12.80;99.90;;;;;;5023026;28;20037;-69
2022/06/19 13:16:50;;;;;;;12.85;8.63;;;12.90;99.90;;;;;;5025103;28;20794;-69
2022/06/19 13:19:35;;;;;;;13.88;7.55;;;13.00;99.90;;;;;;5035597;28;20083;-68
2022/06/19 13:22:20;;;;;;;16.75;7.28;;;13.00;99.90;;;;;;5035020;28;20079;-69
2022/06/19 13:25:26;;;;;;;18.92;7.25;;;13.00;99.90;;;;;;5026644;28;20363;-69
2022/06/19 13:28:03;;;;;;;18.05;7.07;;;12.90;99.90;;;;;;5024525;28;20064;-69
2022/06/19 13:30:42;;;;;;;18.48;6.57;;;12.90;99.90;;;;;;5024272;28;20020;-69